Picton, New Zealand
Current Conditions -  °F | °C
As of 1:30 AM on Friday 24 Oct 2014 (Local Time) from NZWN Reporting Station
Clear Clear  
Wind Chill: 55°   Ceiling: Unl
Heat Index: 55°   Visibility: 6mi
Dew Point: 48°   Wind: 14mph
Humidity: 77%   Direction: 30°NNE
Pressure: 29.71"   Gusts: NA
Location:  41.3°S, 174.01°E
Report Text: NZWN 231330Z AUTO 03012KT 9999 NCD 13/09 Q1006 NOSIG
Loading
Personal Weather Stations






























Interactive Weather Map
Tropical Storm Tracking
New forecast layout! Learn more

10-Day Weather Forecast

Advertisements
Track Severe Weather on mobile